sensor_id;sensor_type;location;lat;lon;timestamp;pressure;altitude;pressure_sealevel;temperature;humidity
17649;BME280;8943;51.110;-4.158;2023-05-08T00:01:37;101516.59;;;18.19;51.21
17649;BME280;8943;51.110;-4.158;2023-05-08T00:04:06;101511.34;;;18.18;51.30
17649;BME280;8943;51.110;-4.158;2023-05-08T00:06:34;101516.91;;;18.16;51.32
17649;BME280;8943;51.110;-4.158;2023-05-08T00:09:03;101503.84;;;18.12;51.50
17649;BME280;8943;51.110;-4.158;2023-05-08T00:11:33;101504.53;;;18.14;51.33
17649;BME280;8943;51.110;-4.158;2023-05-08T00:14:02;101501.84;;;18.14;51.35
17649;BME280;8943;51.110;-4.158;2023-05-08T00:16:31;101507.38;;;18.12;51.31
17649;BME280;8943;51.110;-4.158;2023-05-08T00:19:00;101501.97;;;18.12;51.09
17649;BME280;8943;51.110;-4.158;2023-05-08T00:21:29;101495.75;;;18.12;51.25
17649;BME280;8943;51.110;-4.158;2023-05-08T00:23:58;101493.91;;;18.12;51.41
17649;BME280;8943;51.110;-4.158;2023-05-08T00:26:28;101491.19;;;18.12;51.40
17649;BME280;8943;51.110;-4.158;2023-05-08T00:28:58;101487.50;;;18.13;51.38
17649;BME280;8943;51.110;-4.158;2023-05-08T00:31:26;101486.22;;;18.17;51.65
17649;BME280;8943;51.110;-4.158;2023-05-08T00:33:54;101476.28;;;18.18;51.43
17649;BME280;8943;51.110;-4.158;2023-05-08T00:36:22;101471.72;;;18.18;51.62
17649;BME280;8943;51.110;-4.158;2023-05-08T00:38:51;101476.84;;;18.21;51.45
17649;BME280;8943;51.110;-4.158;2023-05-08T00:41:20;101469.31;;;18.25;51.43
17649;BME280;8943;51.110;-4.158;2023-05-08T00:43:49;101470.47;;;18.22;51.45
17649;BME280;8943;51.110;-4.158;2023-05-08T00:46:19;101463.91;;;18.25;51.37
17649;BME280;8943;51.110;-4.158;2023-05-08T00:48:48;101472.56;;;18.28;51.60
17649;BME280;8943;51.110;-4.158;2023-05-08T00:51:16;101461.78;;;18.28;51.48
17649;BME280;8943;51.110;-4.158;2023-05-08T00:53:44;101458.06;;;18.30;51.39
17649;BME280;8943;51.110;-4.158;2023-05-08T00:56:15;101447.84;;;18.33;51.37
17649;BME280;8943;51.110;-4.158;2023-05-08T00:58:45;101451.13;;;18.37;51.29
17649;BME280;8943;51.110;-4.158;2023-05-08T01:01:14;101448.69;;;18.34;51.25
17649;BME280;8943;51.110;-4.158;2023-05-08T01:03:44;101455.78;;;18.35;51.71
17649;BME280;8943;51.110;-4.158;2023-05-08T01:06:13;101454.09;;;18.34;51.70
17649;BME280;8943;51.110;-4.158;2023-05-08T01:08:43;101457.22;;;18.39;51.38
17649;BME280;8943;51.110;-4.158;2023-05-08T01:11:16;101454.81;;;18.36;51.52
17649;BME280;8943;51.110;-4.158;2023-05-08T01:13:58;101454.50;;;18.39;51.23
17649;BME280;8943;51.110;-4.158;2023-05-08T01:16:37;101447.69;;;18.35;51.60
17649;BME280;8943;51.110;-4.158;2023-05-08T01:19:31;101448.13;;;18.40;51.20
17649;BME280;8943;51.110;-4.158;2023-05-08T01:22:14;101447.84;;;18.43;51.41
17649;BME280;8943;51.110;-4.158;2023-05-08T01:25:10;101444.44;;;18.41;51.30
17649;BME280;8943;51.110;-4.158;2023-05-08T01:28:03;101444.44;;;18.41;51.24
17649;BME280;8943;51.110;-4.158;2023-05-08T01:30:46;101450.69;;;18.41;51.38
17649;BME280;8943;51.110;-4.158;2023-05-08T01:33:24;101449.41;;;18.45;51.28
17649;BME280;8943;51.110;-4.158;2023-05-08T01:35:57;101445.84;;;18.45;50.93
17649;BME280;8943;51.110;-4.158;2023-05-08T01:38:31;101448.69;;;18.43;51.32
17649;BME280;8943;51.110;-4.158;2023-05-08T01:41:05;101450.84;;;18.40;51.32
17649;BME280;8943;51.110;-4.158;2023-05-08T01:43:51;101444.44;;;18.41;50.89
17649;BME280;8943;51.110;-4.158;2023-05-08T01:46:23;101446.13;;;18.42;51.44
17649;BME280;8943;51.110;-4.158;2023-05-08T01:48:59;101441.03;;;18.39;51.64
17649;BME280;8943;51.110;-4.158;2023-05-08T01:51:32;101443.03;;;18.37;51.43
17649;BME280;8943;51.110;-4.158;2023-05-08T01:54:05;101433.94;;;18.38;51.45
17649;BME280;8943;51.110;-4.158;2023-05-08T01:56:36;101436.22;;;18.33;51.73
17649;BME280;8943;51.110;-4.158;2023-05-08T01:59:06;101440.50;;;18.35;51.76
17649;BME280;8943;51.110;-4.158;2023-05-08T02:01:35;101439.06;;;18.31;51.77
17649;BME280;8943;51.110;-4.158;2023-05-08T02:04:06;101444.59;;;18.30;51.96
17649;BME280;8943;51.110;-4.158;2023-05-08T02:06:36;101440.50;;;18.25;52.04
17649;BME280;8943;51.110;-4.158;2023-05-08T02:09:07;101434.22;;;18.25;52.07
17649;BME280;8943;51.110;-4.158;2023-05-08T02:11:41;101433.69;;;18.21;51.86
17649;BME280;8943;51.110;-4.158;2023-05-08T02:14:12;101431.72;;;18.14;52.25
17649;BME280;8943;51.110;-4.158;2023-05-08T02:16:42;101422.91;;;18.12;52.13
17649;BME280;8943;51.110;-4.158;2023-05-08T02:19:13;101424.91;;;18.10;52.22
17649;BME280;8943;51.110;-4.158;2023-05-08T02:21:44;101432.28;;;18.08;52.44
17649;BME280;8943;51.110;-4.158;2023-05-08T02:24:13;101429.03;;;18.04;52.38
17649;BME280;8943;51.110;-4.158;2023-05-08T02:26:43;101418.97;;;17.96;52.65
17649;BME280;8943;51.110;-4.158;2023-05-08T02:29:13;101421.38;;;17.99;52.39
17649;BME280;8943;51.110;-4.158;2023-05-08T02:31:43;101424.22;;;17.98;52.77
17649;BME280;8943;51.110;-4.158;2023-05-08T02:34:14;101423.53;;;17.96;53.00
17649;BME280;8943;51.110;-4.158;2023-05-08T02:36:43;101426.06;;;17.97;52.85
17649;BME280;8943;51.110;-4.158;2023-05-08T02:39:14;101418.97;;;17.96;53.09
17649;BME280;8943;51.110;-4.158;2023-05-08T02:41:42;101419.25;;;17.93;53.08
17649;BME280;8943;51.110;-4.158;2023-05-08T02:44:11;101423.38;;;17.97;53.00
17649;BME280;8943;51.110;-4.158;2023-05-08T02:46:45;101418.13;;;17.96;53.15
17649;BME280;8943;51.110;-4.158;2023-05-08T02:49:28;101417.13;;;17.97;53.40
17649;BME280;8943;51.110;-4.158;2023-05-08T02:52:04;101404.06;;;17.92;53.11
17649;BME280;8943;51.110;-4.158;2023-05-08T02:54:38;101405.34;;;17.98;53.38
17649;BME280;8943;51.110;-4.158;2023-05-08T02:57:17;101395.56;;;17.97;53.55
17649;BME280;8943;51.110;-4.158;2023-05-08T02:59:55;101400.22;;;17.95;53.53
17649;BME280;8943;51.110;-4.158;2023-05-08T03:02:30;101395.13;;;17.92;53.50
17649;BME280;8943;51.110;-4.158;2023-05-08T03:05:07;101390.28;;;17.86;53.65
17649;BME280;8943;51.110;-4.158;2023-05-08T03:07:39;101394.84;;;17.85;53.67
17649;BME280;8943;51.110;-4.158;2023-05-08T03:10:11;101387.91;;;17.83;53.97
17649;BME280;8943;51.110;-4.158;2023-05-08T03:12:45;101389.19;;;17.79;53.98
17649;BME280;8943;51.110;-4.158;2023-05-08T03:15:22;101389.03;;;17.80;54.06
17649;BME280;8943;51.110;-4.158;2023-05-08T03:18:07;101381.78;;;17.81;53.83
17649;BME280;8943;51.110;-4.158;2023-05-08T03:24:43;101383.78;;;17.79;54.21
17649;BME280;8943;51.110;-4.158;2023-05-08T03:27:32;101383.50;;;17.82;54.11
17649;BME280;8943;51.110;-4.158;2023-05-08T03:30:04;101389.75;;;17.82;54.30
17649;BME280;8943;51.110;-4.158;2023-05-08T03:32:40;101375.53;;;17.80;54.26
17649;BME280;8943;51.110;-4.158;2023-05-08T03:35:35;101380.94;;;17.80;54.25
17649;BME280;8943;51.110;-4.158;2023-05-08T03:38:13;101381.66;;;17.82;54.39
17649;BME280;8943;51.110;-4.158;2023-05-08T03:40:44;101373.59;;;17.82;54.43
17649;BME280;8943;51.110;-4.158;2023-05-08T03:43:31;101377.13;;;17.83;54.29
17649;BME280;8943;51.110;-4.158;2023-05-08T03:46:18;101376.97;;;17.84;54.80
17649;BME280;8943;51.110;-4.158;2023-05-08T03:49:23;101362.78;;;17.82;54.66
17649;BME280;8943;51.110;-4.158;2023-05-08T03:52:55;101362.06;;;17.80;54.66
17649;BME280;8943;51.110;-4.158;2023-05-08T03:56:18;101362.22;;;17.79;54.86
17649;BME280;8943;51.110;-4.158;2023-05-08T04:21:58;101345.47;;;17.85;55.38
17649;BME280;8943;51.110;-4.158;2023-05-08T04:24:33;101342.50;;;17.78;55.50
17649;BME280;8943;51.110;-4.158;2023-05-08T04:27:03;101348.47;;;17.82;55.48
17649;BME280;8943;51.110;-4.158;2023-05-08T04:29:32;101348.31;;;17.83;55.50
17649;BME280;8943;51.110;-4.158;2023-05-08T04:32:03;101348.47;;;17.82;55.53
17649;BME280;8943;51.110;-4.158;2023-05-08T04:34:37;101348.06;;;17.77;55.46
17649;BME280;8943;51.110;-4.158;2023-05-08T04:37:23;101350.19;;;17.73;55.72
17649;BME280;8943;51.110;-4.158;2023-05-08T04:39:53;101350.19;;;17.73;55.85
17649;BME280;8943;51.110;-4.158;2023-05-08T04:42:37;101334.13;;;17.71;55.53
17649;BME280;8943;51.110;-4.158;2023-05-08T04:45:09;101348.56;;;17.70;55.80
17649;BME280;8943;51.110;-4.158;2023-05-08T04:47:43;101346.03;;;17.69;55.87
17649;BME280;8943;51.110;-4.158;2023-05-08T04:50:11;101345.47;;;17.65;56.02
17649;BME280;8943;51.110;-4.158;2023-05-08T04:52:41;101338.66;;;17.61;56.29
17649;BME280;8943;51.110;-4.158;2023-05-08T04:55:10;101335.25;;;17.59;56.00
17649;BME280;8943;51.110;-4.158;2023-05-08T05:03:41;101344.03;;;17.51;56.53
17649;BME280;8943;51.110;-4.158;2023-05-08T05:06:10;101345.19;;;17.49;56.54
17649;BME280;8943;51.110;-4.158;2023-05-08T05:08:41;101341.50;;;17.50;56.64
17649;BME280;8943;51.110;-4.158;2023-05-08T05:11:10;101339.81;;;17.49;56.68
17649;BME280;8943;51.110;-4.158;2023-05-08T05:13:38;101343.94;;;17.53;56.55
17649;BME280;8943;51.110;-4.158;2023-05-08T05:16:07;101346.31;;;17.56;56.92
17649;BME280;8943;51.110;-4.158;2023-05-08T05:50:54;101355.97;;;17.68;57.12
17649;BME280;8943;51.110;-4.158;2023-05-08T06:19:25;101354.38;;;17.95;57.38
17649;BME280;8943;51.110;-4.158;2023-05-08T06:21:54;101354.78;;;18.00;57.55
17649;BME280;8943;51.110;-4.158;2023-05-08T06:24:23;101349.28;;;18.01;57.50
17649;BME280;8943;51.110;-4.158;2023-05-08T06:26:57;101352.50;;;18.05;57.39
17649;BME280;8943;51.110;-4.158;2023-05-08T06:29:27;101351.09;;;18.11;57.29
17649;BME280;8943;51.110;-4.158;2023-05-08T06:31:56;101347.69;;;18.09;57.53
17649;BME280;8943;51.110;-4.158;2023-05-08T06:34:26;101348.53;;;18.09;58.01
17649;BME280;8943;51.110;-4.158;2023-05-08T06:36:55;101343.97;;;18.10;57.54
17649;BME280;8943;51.110;-4.158;2023-05-08T06:39:24;101346.56;;;18.11;57.64
17649;BME280;8943;51.110;-4.158;2023-05-08T06:41:53;101345.56;;;18.12;57.66
17649;BME280;8943;51.110;-4.158;2023-05-08T06:44:21;101349.94;;;18.13;57.90
17649;BME280;8943;51.110;-4.158;2023-05-08T06:46:50;101356.19;;;18.14;57.70
17649;BME280;8943;51.110;-4.158;2023-05-08T06:49:19;101358.44;;;18.18;57.74
17649;BME280;8943;51.110;-4.158;2023-05-08T06:51:50;101351.91;;;18.21;57.77
17649;BME280;8943;51.110;-4.158;2023-05-08T06:54:20;101350.59;;;18.25;57.78
17649;BME280;8943;51.110;-4.158;2023-05-08T06:56:48;101353.19;;;18.26;57.89
17649;BME280;8943;51.110;-4.158;2023-05-08T06:59:16;101358.41;;;18.28;57.80
17649;BME280;8943;51.110;-4.158;2023-05-08T07:01:45;101352.41;;;18.34;57.75
17649;BME280;8943;51.110;-4.158;2023-05-08T07:04:13;101360.38;;;18.36;58.01
17649;BME280;8943;51.110;-4.158;2023-05-08T07:06:44;101352.97;;;18.38;57.93
17649;BME280;8943;51.110;-4.158;2023-05-08T07:09:15;101346.75;;;18.37;57.70
17649;BME280;8943;51.110;-4.158;2023-05-08T07:11:47;101344.88;;;18.38;57.85
17649;BME280;8943;51.110;-4.158;2023-05-08T07:14:16;101336.63;;;18.39;58.07
17649;BME280;8943;51.110;-4.158;2023-05-08T07:16:45;101335.91;;;18.47;58.10
17649;BME280;8943;51.110;-4.158;2023-05-08T07:19:13;101336.31;;;18.52;58.09
17649;BME280;8943;51.110;-4.158;2023-05-08T07:21:41;101335.31;;;18.53;58.06
17649;BME280;8943;51.110;-4.158;2023-05-08T07:24:13;101337.72;;;18.56;58.20
17649;BME280;8943;51.110;-4.158;2023-05-08T07:26:41;101335.69;;;18.58;58.17
17649;BME280;8943;51.110;-4.158;2023-05-08T07:29:11;101332.44;;;18.64;58.69
17649;BME280;8943;51.110;-4.158;2023-05-08T07:31:43;101327.97;;;18.73;58.62
17649;BME280;8943;51.110;-4.158;2023-05-08T07:34:33;101322.63;;;18.91;58.40
17649;BME280;8943;51.110;-4.158;2023-05-08T07:37:08;101312.59;;;19.01;58.15
17649;BME280;8943;51.110;-4.158;2023-05-08T07:39:39;101315.00;;;19.04;58.08
17649;BME280;8943;51.110;-4.158;2023-05-08T07:42:08;101321.31;;;19.13;58.04
17649;BME280;8943;51.110;-4.158;2023-05-08T07:44:48;101314.78;;;19.15;58.03
17649;BME280;8943;51.110;-4.158;2023-05-08T07:48:13;101300.16;;;19.26;57.87
17649;BME280;8943;51.110;-4.158;2023-05-08T08:15:53;101294.19;;;20.36;57.57
17649;BME280;8943;51.110;-4.158;2023-05-08T08:18:23;101297.38;;;20.31;57.64
17649;BME280;8943;51.110;-4.158;2023-05-08T08:20:51;101299.19;;;20.23;57.33
17649;BME280;8943;51.110;-4.158;2023-05-08T08:23:19;101282.03;;;20.06;57.46
17649;BME280;8943;51.110;-4.158;2023-05-08T08:25:48;101275.56;;;19.99;57.60
17649;BME280;8943;51.110;-4.158;2023-05-08T08:28:19;101285.00;;;19.95;57.77
17649;BME280;8943;51.110;-4.158;2023-05-08T08:30:49;101273.16;;;19.96;57.90
17649;BME280;8943;51.110;-4.158;2023-05-08T08:33:19;101277.06;;;19.93;57.91
17649;BME280;8943;51.110;-4.158;2023-05-08T08:35:47;101286.06;;;20.02;57.93
17649;BME280;8943;51.110;-4.158;2023-05-08T08:38:15;101279.34;;;20.06;58.42
17649;BME280;8943;51.110;-4.158;2023-05-08T08:40:44;101277.47;;;20.06;58.35
17649;BME280;8943;51.110;-4.158;2023-05-08T08:43:13;101287.66;;;20.13;58.32
17649;BME280;8943;51.110;-4.158;2023-05-08T08:45:41;101283.09;;;20.13;58.10
17649;BME280;8943;51.110;-4.158;2023-05-08T08:48:10;101289.16;;;20.15;57.86
17649;BME280;8943;51.110;-4.158;2023-05-08T08:50:42;101289.50;;;20.12;57.66
17649;BME280;8943;51.110;-4.158;2023-05-08T08:53:21;101281.16;;;20.05;57.78
17649;BME280;8943;51.110;-4.158;2023-05-08T08:55:53;101283.75;;;20.07;57.83
17649;BME280;8943;51.110;-4.158;2023-05-08T08:58:27;101277.78;;;20.03;57.94
17649;BME280;8943;51.110;-4.158;2023-05-08T09:00:59;101282.03;;;20.06;58.26
17649;BME280;8943;51.110;-4.158;2023-05-08T09:03:30;101281.72;;;20.09;58.06
17649;BME280;8943;51.110;-4.158;2023-05-08T09:06:01;101285.00;;;20.21;57.88
17649;BME280;8943;51.110;-4.158;2023-05-08T09:08:29;101280.75;;;20.18;57.83
17649;BME280;8943;51.110;-4.158;2023-05-08T09:11:00;101282.59;;;20.18;57.86
17649;BME280;8943;51.110;-4.158;2023-05-08T09:13:29;101282.44;;;20.19;57.87
17649;BME280;8943;51.110;-4.158;2023-05-08T09:15:58;101274.78;;;20.15;57.85
17649;BME280;8943;51.110;-4.158;2023-05-08T09:18:27;101264.19;;;20.21;57.92
17649;BME280;8943;51.110;-4.158;2023-05-08T09:20:56;101264.22;;;20.29;58.10
17649;BME280;8943;51.110;-4.158;2023-05-08T09:23:29;101269.00;;;20.36;58.13
17649;BME280;8943;51.110;-4.158;2023-05-08T09:25:59;101261.91;;;20.43;58.04
17649;BME280;8943;51.110;-4.158;2023-05-08T09:29:13;101257.25;;;20.61;58.00
17649;BME280;8943;51.110;-4.158;2023-05-08T09:31:43;101259.28;;;20.67;58.02
17649;BME280;8943;51.110;-4.158;2023-05-08T09:34:22;101248.31;;;20.77;58.19
17649;BME280;8943;51.110;-4.158;2023-05-08T09:37:10;101239.00;;;20.88;58.09
17649;BME280;8943;51.110;-4.158;2023-05-08T09:39:41;101252.75;;;20.94;58.09
17649;BME280;8943;51.110;-4.158;2023-05-08T09:42:11;101247.31;;;21.02;58.07
17649;BME280;8943;51.110;-4.158;2023-05-08T09:44:46;101244.47;;;21.12;58.04
17649;BME280;8943;51.110;-4.158;2023-05-08T09:47:19;101244.47;;;21.20;57.77
17649;BME280;8943;51.110;-4.158;2023-05-08T09:49:58;101245.13;;;21.22;57.50
17649;BME280;8943;51.110;-4.158;2023-05-08T09:52:51;101248.03;;;21.21;57.72
17649;BME280;8943;51.110;-4.158;2023-05-08T09:55:21;101239.19;;;21.27;57.53
17649;BME280;8943;51.110;-4.158;2023-05-08T09:57:56;101243.78;;;21.26;57.54
17649;BME280;8943;51.110;-4.158;2023-05-08T10:00:37;101240.59;;;21.31;57.27
17649;BME280;8943;51.110;-4.158;2023-05-08T10:03:08;101246.53;;;21.34;57.41
17649;BME280;8943;51.110;-4.158;2023-05-08T10:05:36;101247.03;;;21.38;57.27
17649;BME280;8943;51.110;-4.158;2023-05-08T10:08:17;101250.28;;;21.33;57.23
17649;BME280;8943;51.110;-4.158;2023-05-08T10:10:48;101258.19;;;21.27;57.09
17649;BME280;8943;51.110;-4.158;2023-05-08T10:13:16;101258.00;;;21.20;57.40
17649;BME280;8943;51.110;-4.158;2023-05-08T10:15:47;101259.03;;;21.11;57.26
17649;BME280;8943;51.110;-4.158;2023-05-08T10:18:23;101245.13;;;21.06;57.24
17649;BME280;8943;51.110;-4.158;2023-05-08T10:21:05;101239.38;;;21.01;57.58
17649;BME280;8943;51.110;-4.158;2023-05-08T10:23:51;101242.09;;;21.01;57.52
17649;BME280;8943;51.110;-4.158;2023-05-08T10:26:29;101252.94;;;21.09;57.71
17649;BME280;8943;51.110;-4.158;2023-05-08T10:28:58;101240.75;;;21.05;57.41
17649;BME280;8943;51.110;-4.158;2023-05-08T10:31:34;101244.78;;;21.01;57.49
17649;BME280;8943;51.110;-4.158;2023-05-08T10:34:07;101239.06;;;21.04;57.65
17649;BME280;8943;51.110;-4.158;2023-05-08T10:36:37;101238.69;;;21.07;58.04
17649;BME280;8943;51.110;-4.158;2023-05-08T10:39:09;101234.63;;;21.11;58.28
17649;BME280;8943;51.110;-4.158;2023-05-08T10:41:45;101243.78;;;21.26;58.05
17649;BME280;8943;51.110;-4.158;2023-05-08T10:44:14;101248.91;;;21.38;57.90
17649;BME280;8943;51.110;-4.158;2023-05-08T10:46:49;101250.44;;;21.48;57.88
17649;BME280;8943;51.110;-4.158;2023-05-08T10:49:24;101254.97;;;21.56;57.67
17649;BME280;8943;51.110;-4.158;2023-05-08T10:52:06;101238.38;;;21.59;57.55
17649;BME280;8943;51.110;-4.158;2023-05-08T10:54:47;101236.84;;;21.56;57.51
17649;BME280;8943;51.110;-4.158;2023-05-08T10:57:17;101236.00;;;21.56;57.44
17649;BME280;8943;51.110;-4.158;2023-05-08T10:59:47;101227.38;;;21.52;57.34
17649;BME280;8943;51.110;-4.158;2023-05-08T11:02:25;101222.63;;;21.54;57.47
17649;BME280;8943;51.110;-4.158;2023-05-08T11:05:13;101220.56;;;21.65;57.67
17649;BME280;8943;51.110;-4.158;2023-05-08T11:07:54;101223.06;;;21.74;57.63
17649;BME280;8943;51.110;-4.158;2023-05-08T11:10:29;101221.72;;;21.78;57.23
17649;BME280;8943;51.110;-4.158;2023-05-08T11:13:00;101215.94;;;21.81;57.10
17649;BME280;8943;51.110;-4.158;2023-05-08T11:15:35;101222.91;;;21.76;57.33
17649;BME280;8943;51.110;-4.158;2023-05-08T11:18:05;101219.84;;;21.79;56.85
17649;BME280;8943;51.110;-4.158;2023-05-08T11:20:38;101222.75;;;21.69;56.95
17649;BME280;8943;51.110;-4.158;2023-05-08T11:23:22;101228.03;;;21.63;56.90
17649;BME280;8943;51.110;-4.158;2023-05-08T11:25:58;101230.06;;;21.60;57.05
17649;BME280;8943;51.110;-4.158;2023-05-08T11:28:30;101224.16;;;21.57;56.85
17649;BME280;8943;51.110;-4.158;2023-05-08T11:31:02;101223.31;;;21.48;56.84
17649;BME280;8943;51.110;-4.158;2023-05-08T11:33:31;101223.81;;;21.36;56.96
17649;BME280;8943;51.110;-4.158;2023-05-08T11:36:11;101225.50;;;21.28;57.22
17649;BME280;8943;51.110;-4.158;2023-05-08T11:38:40;101232.94;;;21.26;57.12
17649;BME280;8943;51.110;-4.158;2023-05-08T11:41:19;101218.03;;;21.22;57.22
17649;BME280;8943;51.110;-4.158;2023-05-08T11:44:19;101222.78;;;21.12;57.26
17649;BME280;8943;51.110;-4.158;2023-05-08T11:46:51;101221.06;;;21.03;57.31
17649;BME280;8943;51.110;-4.158;2023-05-08T11:49:21;101225.31;;;21.05;57.62
17649;BME280;8943;51.110;-4.158;2023-05-08T11:51:56;101222.78;;;21.04;57.52
17649;BME280;8943;51.110;-4.158;2023-05-08T11:54:28;101230.75;;;21.05;57.58
17649;BME280;8943;51.110;-4.158;2023-05-08T11:56:57;101222.78;;;21.04;57.65
17649;BME280;8943;51.110;-4.158;2023-05-08T11:59:27;101222.78;;;21.04;57.60
17649;BME280;8943;51.110;-4.158;2023-05-08T12:01:55;101213.44;;;20.98;57.40
17649;BME280;8943;51.110;-4.158;2023-05-08T12:04:42;101214.00;;;20.94;57.76
17649;BME280;8943;51.110;-4.158;2023-05-08T12:07:18;101213.66;;;20.89;57.96
17649;BME280;8943;51.110;-4.158;2023-05-08T12:09:48;101216.84;;;20.92;57.85
17649;BME280;8943;51.110;-4.158;2023-05-08T12:12:16;101217.03;;;20.91;57.79
17649;BME280;8943;51.110;-4.158;2023-05-08T12:14:50;101222.75;;;20.88;57.95
17649;BME280;8943;51.110;-4.158;2023-05-08T12:17:18;101213.13;;;20.85;58.14
17649;BME280;8943;51.110;-4.158;2023-05-08T12:19:47;101215.97;;;20.83;58.34
17649;BME280;8943;51.110;-4.158;2023-05-08T12:22:15;101211.75;;;20.81;58.20
17649;BME280;8943;51.110;-4.158;2023-05-08T12:24:43;101210.91;;;20.80;57.89
17649;BME280;8943;51.110;-4.158;2023-05-08T12:27:12;101214.97;;;20.76;58.45
17649;BME280;8943;51.110;-4.158;2023-05-08T12:29:43;101206.19;;;20.74;58.63
17649;BME280;8943;51.110;-4.158;2023-05-08T12:32:13;101212.25;;;20.76;58.36
17649;BME280;8943;51.110;-4.158;2023-05-08T12:34:41;101212.75;;;20.72;58.56
17649;BME280;8943;51.110;-4.158;2023-05-08T12:37:09;101210.56;;;20.67;58.66
17649;BME280;8943;51.110;-4.158;2023-05-08T12:39:43;101214.47;;;20.65;58.59
17649;BME280;8943;51.110;-4.158;2023-05-08T12:42:11;101216.66;;;20.61;58.21
17649;BME280;8943;51.110;-4.158;2023-05-08T12:44:39;101226.78;;;20.51;58.52
17649;BME280;8943;51.110;-4.158;2023-05-08T12:47:08;101226.34;;;20.38;58.79
17649;BME280;8943;51.110;-4.158;2023-05-08T12:49:37;101222.28;;;20.25;59.13
17649;BME280;8943;51.110;-4.158;2023-05-08T12:52:07;101225.97;;;20.24;59.33
17649;BME280;8943;51.110;-4.158;2023-05-08T12:54:36;101228.66;;;20.16;59.63
17649;BME280;8943;51.110;-4.158;2023-05-08T12:57:09;101233.06;;;20.17;59.86
17649;BME280;8943;51.110;-4.158;2023-05-08T12:59:38;101229.47;;;20.09;60.11
17649;BME280;8943;51.110;-4.158;2023-05-08T13:02:11;101227.94;;;20.06;60.02
17649;BME280;8943;51.110;-4.158;2023-05-08T13:04:41;101238.22;;;20.02;60.34
17649;BME280;8943;51.110;-4.158;2023-05-08T13:07:10;101223.81;;;19.94;60.52
17649;BME280;8943;51.110;-4.158;2023-05-08T13:09:38;101228.06;;;19.96;60.78
17649;BME280;8943;51.110;-4.158;2023-05-08T13:12:06;101239.72;;;19.97;60.73
17649;BME280;8943;51.110;-4.158;2023-05-08T13:14:35;101245.75;;;19.91;60.67
17649;BME280;8943;51.110;-4.158;2023-05-08T13:17:02;101235.28;;;19.88;60.96
17649;BME280;8943;51.110;-4.158;2023-05-08T13:19:30;101239.63;;;19.80;60.81
17649;BME280;8943;51.110;-4.158;2023-05-08T13:22:00;101231.47;;;19.72;60.92
17649;BME280;8943;51.110;-4.158;2023-05-08T13:24:28;101233.34;;;19.72;61.14
17649;BME280;8943;51.110;-4.158;2023-05-08T13:26:57;101230.41;;;19.65;61.50
17649;BME280;8943;51.110;-4.158;2023-05-08T13:29:25;101234.44;;;19.61;61.52
17649;BME280;8943;51.110;-4.158;2023-05-08T13:31:53;101231.66;;;19.53;61.49
17649;BME280;8943;51.110;-4.158;2023-05-08T13:34:21;101235.34;;;19.52;61.58
17649;BME280;8943;51.110;-4.158;2023-05-08T13:36:51;101223.47;;;19.45;61.45
17649;BME280;8943;51.110;-4.158;2023-05-08T13:39:20;101234.97;;;19.47;61.92
17649;BME280;8943;51.110;-4.158;2023-05-08T13:41:48;101234.59;;;19.42;61.82
17649;BME280;8943;51.110;-4.158;2023-05-08T13:44:16;101228.88;;;19.45;61.67
17649;BME280;8943;51.110;-4.158;2023-05-08T13:46:44;101223.47;;;19.45;62.02
17649;BME280;8943;51.110;-4.158;2023-05-08T13:49:12;101227.56;;;19.49;61.77
17649;BME280;8943;51.110;-4.158;2023-05-08T13:51:40;101219.47;;;19.49;61.61
17649;BME280;8943;51.110;-4.158;2023-05-08T13:54:14;101218.75;;;19.47;61.66
17649;BME280;8943;51.110;-4.158;2023-05-08T13:56:45;101225.50;;;19.43;61.91
17649;BME280;8943;51.110;-4.158;2023-05-08T13:59:13;101227.19;;;19.44;61.84
17649;BME280;8943;51.110;-4.158;2023-05-08T14:01:41;101225.03;;;19.47;61.76
17649;BME280;8943;51.110;-4.158;2023-05-08T14:04:09;101224.88;;;19.49;62.29
17649;BME280;8943;51.110;-4.158;2023-05-08T14:06:37;101224.88;;;19.49;61.96
17649;BME280;8943;51.110;-4.158;2023-05-08T14:09:05;101228.13;;;19.52;62.13
17649;BME280;8943;51.110;-4.158;2023-05-08T14:11:33;101216.59;;;19.50;62.03
17649;BME280;8943;51.110;-4.158;2023-05-08T14:14:03;101220.00;;;19.52;62.05
17649;BME280;8943;51.110;-4.158;2023-05-08T14:16:31;101225.91;;;19.56;62.00
17649;BME280;8943;51.110;-4.158;2023-05-08T14:18:59;101219.00;;;19.53;62.12
17649;BME280;8943;51.110;-4.158;2023-05-08T14:21:27;101219.84;;;19.54;62.03
17649;BME280;8943;51.110;-4.158;2023-05-08T14:23:56;101222.00;;;19.50;62.03
17649;BME280;8943;51.110;-4.158;2023-05-08T14:26:24;101226.38;;;19.51;61.74
17649;BME280;8943;51.110;-4.158;2023-05-08T14:28:52;101223.00;;;19.49;62.22
17649;BME280;8943;51.110;-4.158;2023-05-08T14:31:22;101217.13;;;19.54;62.03
17649;BME280;8943;51.110;-4.158;2023-05-08T14:33:50;101211.19;;;19.50;62.08
17649;BME280;8943;51.110;-4.158;2023-05-08T14:36:18;101218.81;;;19.55;62.25
17649;BME280;8943;51.110;-4.158;2023-05-08T14:38:46;101213.72;;;19.52;62.19
17649;BME280;8943;51.110;-4.158;2023-05-08T14:41:14;101213.41;;;19.55;62.01
17649;BME280;8943;51.110;-4.158;2023-05-08T14:43:42;101203.97;;;19.59;61.91
17649;BME280;8943;51.110;-4.158;2023-05-08T14:46:10;101213.09;;;19.58;62.07
17649;BME280;8943;51.110;-4.158;2023-05-08T14:48:39;101210.53;;;19.56;61.96
17649;BME280;8943;51.110;-4.158;2023-05-08T14:51:07;101212.75;;;19.53;61.83
17649;BME280;8943;51.110;-4.158;2023-05-08T14:53:37;101204.25;;;19.48;61.75
17649;BME280;8943;51.110;-4.158;2023-05-08T14:56:06;101206.97;;;19.48;61.86
17649;BME280;8943;51.110;-4.158;2023-05-08T14:58:34;101197.84;;;19.49;62.09
17649;BME280;8943;51.110;-4.158;2023-05-08T15:01:02;101198.69;;;19.49;61.78
17649;BME280;8943;51.110;-4.158;2023-05-08T15:03:31;101196.34;;;19.54;62.13
17649;BME280;8943;51.110;-4.158;2023-05-08T15:06:01;101207.47;;;19.51;61.88
17649;BME280;8943;51.110;-4.158;2023-05-08T15:08:30;101203.25;;;19.49;61.47
17649;BME280;8943;51.110;-4.158;2023-05-08T15:10:58;101197.09;;;19.39;61.84
17649;BME280;8943;51.110;-4.158;2023-05-08T15:13:26;101195.41;;;19.38;62.03
17649;BME280;8943;51.110;-4.158;2023-05-08T15:15:54;101202.50;;;19.39;61.63